createdAt,value
2023-05-13T00:00:06.531Z,498.9
2023-05-13T00:01:08.214Z,499
2023-05-13T00:02:09.932Z,499.1
2023-05-13T00:03:12.507Z,499.3
2023-05-13T00:04:14.285Z,499.2
2023-05-13T00:05:15.913Z,499.2
2023-05-13T00:06:17.666Z,499.3
2023-05-13T00:07:19.388Z,499.3
2023-05-13T00:08:21.052Z,499.4
2023-05-13T00:09:22.789Z,499.3
2023-05-13T00:10:24.966Z,499.4
2023-05-13T00:11:26.684Z,499.6
2023-05-13T00:12:28.551Z,499.8
2023-05-13T00:13:30.401Z,499.9
2023-05-13T00:14:32.375Z,499.9
2023-05-13T00:15:34.008Z,499.5
2023-05-13T00:16:36.053Z,499.9
2023-05-13T00:17:38.057Z,499.6
2023-05-13T00:18:39.748Z,499.5
2023-05-13T00:19:41.390Z,500
2023-05-13T00:20:43.047Z,499.8
2023-05-13T00:21:44.666Z,499.8
2023-05-13T00:22:46.262Z,500.1
2023-05-13T00:23:47.896Z,500.1
2023-05-13T00:24:49.723Z,500.1
2023-05-13T00:25:51.663Z,500.1
2023-05-13T00:26:53.351Z,500.5
2023-05-13T00:27:54.974Z,500.3
2023-05-13T00:28:56.703Z,500.2
2023-05-13T00:29:58.574Z,500.4
2023-05-13T00:31:00.370Z,500.6
2023-05-13T00:32:02.729Z,500.4
2023-05-13T00:33:04.933Z,500.4
2023-05-13T00:34:06.526Z,500
2023-05-13T00:35:08.216Z,499.9
2023-05-13T00:36:09.973Z,500.3
2023-05-13T00:37:11.709Z,500.3
2023-05-13T00:38:13.318Z,500.1
2023-05-13T00:39:14.940Z,500.5
2023-05-13T00:40:20.205Z,500.5
2023-05-13T00:41:22.050Z,500.9
2023-05-13T00:42:23.665Z,500.4
2023-05-13T00:43:25.352Z,500.2
2023-05-13T00:44:27.127Z,500.7
2023-05-13T00:45:29.455Z,500.5
2023-05-13T00:46:31.419Z,500.5
2023-05-13T00:47:33.506Z,500.6
2023-05-13T00:48:35.161Z,500.8
2023-05-13T00:49:36.819Z,500.6
2023-05-13T00:50:38.372Z,500.5
2023-05-13T00:51:40.023Z,500.3
2023-05-13T00:52:41.809Z,500.1
2023-05-13T00:53:43.428Z,500
2023-05-13T00:54:45.205Z,499.9
2023-05-13T00:55:47.072Z,499.8
2023-05-13T00:56:49.338Z,499.7
2023-05-13T00:57:51.155Z,499.7
2023-05-13T00:58:52.868Z,499.6
2023-05-13T00:59:54.441Z,499.3
2023-05-13T01:00:56.463Z,499.9
2023-05-13T01:01:58.616Z,499.8
2023-05-13T01:03:01.031Z,499.8
2023-05-13T01:04:02.993Z,499.9
2023-05-13T01:05:04.655Z,500.4
2023-05-13T01:06:06.331Z,500.7
2023-05-13T01:07:08.126Z,500.8
2023-05-13T01:08:10.076Z,500.8
2023-05-13T01:09:11.939Z,501
2023-05-13T01:10:13.903Z,501
2023-05-13T01:11:15.530Z,501.2
2023-05-13T01:12:17.233Z,501.1
2023-05-13T01:13:19.013Z,501
2023-05-13T01:14:20.772Z,501.1
2023-05-13T01:15:22.514Z,501
2023-05-13T01:16:24.527Z,501.2
2023-05-13T01:17:26.537Z,501.1
2023-05-13T01:18:28.479Z,501.3
2023-05-13T01:19:30.541Z,501.2
2023-05-13T01:20:32.387Z,500.8
2023-05-13T01:21:34.048Z,501.1
2023-05-13T01:22:35.649Z,501.1
2023-05-13T01:23:37.412Z,501.4
2023-05-13T01:24:39.514Z,501.2
2023-05-13T01:25:41.113Z,501.3
2023-05-13T01:26:42.865Z,500.8
2023-05-13T01:27:44.722Z,500.4
2023-05-13T01:28:46.537Z,500
2023-05-13T01:29:48.420Z,499.5
2023-05-13T01:30:50.208Z,499.4
2023-05-13T01:31:52.028Z,499.5
2023-05-13T01:32:53.901Z,499.1
2023-05-13T01:33:55.618Z,498.8
2023-05-13T01:34:57.353Z,499.1
2023-05-13T01:35:59.316Z,498.7
2023-05-13T01:37:01.161Z,498.9
2023-05-13T01:38:03.033Z,499
2023-05-13T01:39:04.868Z,499.1
2023-05-13T01:40:33.546Z,499.5
2023-05-13T01:41:35.485Z,499.5
2023-05-13T01:42:37.145Z,499.8
2023-05-13T01:43:38.994Z,499.8
2023-05-13T01:44:40.848Z,499.5
2023-05-13T01:45:42.794Z,499.3
2023-05-13T01:46:44.898Z,499.4
2023-05-13T01:47:46.912Z,499.6
2023-05-13T01:48:48.722Z,499.6
2023-05-13T01:49:50.603Z,499.6
2023-05-13T01:50:52.325Z,499.6
2023-05-13T01:51:53.923Z,499.4
2023-05-13T01:52:55.731Z,499.6
2023-05-13T01:53:57.519Z,499.8
2023-05-13T01:54:59.369Z,499.6
2023-05-13T01:56:01.006Z,499.5
2023-05-13T01:57:02.825Z,499.4
2023-05-13T01:58:04.684Z,499.1
2023-05-13T01:59:06.361Z,499.4
2023-05-13T02:00:08.072Z,499.8
2023-05-13T02:01:09.739Z,499.3
2023-05-13T02:02:11.948Z,499.4
2023-05-13T02:03:14.653Z,499.1
2023-05-13T02:04:16.714Z,498.9
2023-05-13T02:05:18.382Z,498.9
2023-05-13T02:06:20.207Z,499.1
2023-05-13T02:07:21.920Z,499.4
2023-05-13T02:08:23.518Z,499.6
2023-05-13T02:09:25.084Z,499.8
2023-05-13T02:10:26.990Z,500
2023-05-13T02:11:28.935Z,500
2023-05-13T02:12:30.607Z,499.7
2023-05-13T02:13:32.330Z,499.7
2023-05-13T02:14:33.922Z,499.8
2023-05-13T02:15:35.678Z,499.7
2023-05-13T02:16:37.818Z,499
2023-05-13T02:17:39.878Z,499.1
2023-05-13T02:18:42.330Z,498.8
2023-05-13T02:19:43.981Z,498.9
2023-05-13T02:20:45.798Z,498.5
2023-05-13T02:21:47.766Z,498.3
2023-05-13T02:22:49.597Z,498.5
2023-05-13T02:23:51.449Z,498.6
2023-05-13T02:24:53.182Z,498.9
2023-05-13T02:25:54.843Z,499
2023-05-13T02:26:56.589Z,499.2
2023-05-13T02:27:58.544Z,499.1
2023-05-13T02:29:00.389Z,498.9
2023-05-13T02:30:02.190Z,499
2023-05-13T02:31:03.906Z,498.8
2023-05-13T02:32:06.007Z,498.5
2023-05-13T02:33:08.223Z,498.7
2023-05-13T02:34:10.019Z,498.7
2023-05-13T02:35:11.809Z,498.6
2023-05-13T02:36:13.381Z,498.3
2023-05-13T02:37:15.194Z,498.4
2023-05-13T02:38:17.049Z,498.7
2023-05-13T02:39:18.727Z,498.4
2023-05-13T02:40:21.519Z,498.3
2023-05-13T02:41:23.435Z,498.2
2023-05-13T02:42:25.272Z,498.5
2023-05-13T02:43:27.210Z,498.2
2023-05-13T02:44:29.045Z,498.1
2023-05-13T02:45:31.009Z,498.7
2023-05-13T02:46:33.306Z,498.5
2023-05-13T02:47:35.065Z,498.4
2023-05-13T02:48:36.684Z,498.2
2023-05-13T02:49:38.337Z,498.4
2023-05-13T02:50:40.076Z,498.6
2023-05-13T02:51:41.817Z,498.9
2023-05-13T02:52:43.661Z,498.8
2023-05-13T02:53:45.519Z,499.1
2023-05-13T02:54:47.398Z,498.7
2023-05-13T02:55:49.037Z,498.4
2023-05-13T02:56:50.646Z,498.4
2023-05-13T02:57:52.400Z,498.5
2023-05-13T02:58:54.251Z,498.3
2023-05-13T02:59:56.209Z,498.2
2023-05-13T03:00:58.191Z,497.9
2023-05-13T03:02:00.117Z,497.9
2023-05-13T03:03:02.642Z,497.7
2023-05-13T03:04:04.536Z,497.6
2023-05-13T03:05:06.518Z,497.2
2023-05-13T03:06:08.327Z,496.9
2023-05-13T03:07:10.193Z,496.4
2023-05-13T03:08:12.033Z,496.4
2023-05-13T03:09:13.872Z,496.2
2023-05-13T03:10:15.727Z,495.9
2023-05-13T03:11:17.650Z,495.8
2023-05-13T03:12:19.442Z,495.8
2023-05-13T03:13:21.291Z,495.7
2023-05-13T03:14:23.122Z,495.8
2023-05-13T03:15:25.083Z,495.9
2023-05-13T03:16:27.160Z,495.8
2023-05-13T03:17:29.116Z,496.1
2023-05-13T03:18:33.692Z,495.8
2023-05-13T03:19:35.445Z,496.1
2023-05-13T03:20:37.422Z,496
2023-05-13T03:21:39.361Z,496.1
2023-05-13T03:22:41.209Z,495.9
2023-05-13T03:23:43.154Z,496.1
2023-05-13T03:24:45.008Z,496
2023-05-13T03:25:46.951Z,496.3
2023-05-13T03:26:48.960Z,496.2
2023-05-13T03:27:50.658Z,496.5
2023-05-13T03:28:52.396Z,496.4
2023-05-13T03:29:54.348Z,495.9
2023-05-13T03:30:59.146Z,495.8
2023-05-13T03:32:00.940Z,495.7
2023-05-13T03:33:03.009Z,495.7
2023-05-13T03:34:04.828Z,495.8
2023-05-13T03:35:06.684Z,495.3
2023-05-13T03:36:08.551Z,495.3
2023-05-13T03:37:10.371Z,495
2023-05-13T03:38:12.328Z,495.4
2023-05-13T03:39:14.105Z,495.1
2023-05-13T03:40:15.933Z,495.1
2023-05-13T03:41:17.877Z,494.7
2023-05-13T03:42:19.832Z,494.7
2023-05-13T03:43:21.532Z,494.5
2023-05-13T03:44:23.334Z,493.9
2023-05-13T03:45:25.115Z,494
2023-05-13T03:46:26.957Z,494
2023-05-13T03:47:29.201Z,493.9
2023-05-13T03:48:31.049Z,494.1
2023-05-13T03:49:32.760Z,494
2023-05-13T03:50:34.526Z,494.1
2023-05-13T03:51:36.408Z,493.7
2023-05-13T03:52:38.232Z,493.9
2023-05-13T03:53:40.082Z,494
2023-05-13T03:54:42.031Z,494
2023-05-13T03:55:43.689Z,493.9
2023-05-13T03:56:45.396Z,494.3
2023-05-13T03:57:47.047Z,494
2023-05-13T03:58:48.639Z,493.7
2023-05-13T03:59:50.238Z,493.9
2023-05-13T04:00:51.828Z,493.4
2023-05-13T04:01:53.825Z,493.3
2023-05-13T04:02:56.171Z,493.3
2023-05-13T04:03:58.066Z,493
2023-05-13T04:04:59.875Z,493.1
2023-05-13T04:06:01.678Z,492.9
2023-05-13T04:07:03.648Z,492.6
2023-05-13T04:08:05.680Z,492.5
2023-05-13T04:09:07.425Z,492.2
2023-05-13T04:10:09.106Z,491.7
2023-05-13T04:11:10.751Z,491.7
2023-05-13T04:12:12.408Z,491.4
2023-05-13T04:13:14.086Z,491.4
2023-05-13T04:14:15.738Z,491.6
2023-05-13T04:15:17.386Z,491.8
2023-05-13T04:16:19.337Z,491.6
2023-05-13T04:17:21.381Z,491.4
2023-05-13T04:18:23.367Z,491.5
2023-05-13T04:19:25.191Z,491.3
2023-05-13T04:20:27.049Z,491.4
2023-05-13T04:21:28.793Z,491.6
2023-05-13T04:22:30.588Z,491.7
2023-05-13T04:23:32.266Z,491.8
2023-05-13T04:24:34.040Z,491.9
2023-05-13T04:25:35.830Z,491.6
2023-05-13T04:26:37.572Z,491.6
2023-05-13T04:27:39.403Z,491.5
2023-05-13T04:28:41.082Z,490.9
2023-05-13T04:29:42.715Z,490.9
2023-05-13T04:30:44.524Z,490.8
2023-05-13T04:31:46.693Z,490.9
2023-05-13T04:32:49.041Z,491
2023-05-13T04:33:51.086Z,490.9
2023-05-13T04:34:52.951Z,491.3
2023-05-13T04:35:54.903Z,490.8
2023-05-13T04:36:56.674Z,490.7
2023-05-13T04:37:58.633Z,490.4
2023-05-13T04:39:00.370Z,489.9
2023-05-13T04:40:02.202Z,489.4
2023-05-13T04:41:03.998Z,489.3
2023-05-13T04:42:05.897Z,489.4
2023-05-13T04:43:07.755Z,489.3
2023-05-13T04:44:09.608Z,489.4
2023-05-13T04:45:11.465Z,489.3
2023-05-13T04:46:13.448Z,489.3
2023-05-13T04:47:15.261Z,489.3
2023-05-13T04:48:17.106Z,489.5
2023-05-13T04:49:20.311Z,489.5
2023-05-13T04:50:24.506Z,489.7
2023-05-13T04:51:28.392Z,489.6
2023-05-13T04:52:30.541Z,489.7
2023-05-13T04:53:32.319Z,489.8
2023-05-13T04:54:33.939Z,489.7
2023-05-13T04:55:35.671Z,489.7
2023-05-13T04:56:37.432Z,489.9
2023-05-13T04:57:39.100Z,489.8
2023-05-13T04:58:41.137Z,489.9
2023-05-13T04:59:43.094Z,490.2
2023-05-13T05:00:44.945Z,490.1
2023-05-13T05:01:46.944Z,490.4
2023-05-13T05:02:49.239Z,490.4
2023-05-13T05:03:51.358Z,490.7
2023-05-13T05:04:53.152Z,490.6
2023-05-13T05:05:55.011Z,490.7
2023-05-13T05:06:56.871Z,490.6
2023-05-13T05:07:58.720Z,490.7
2023-05-13T05:09:00.580Z,490.9
2023-05-13T05:10:02.607Z,491.1
2023-05-13T05:11:04.396Z,491.2
2023-05-13T05:12:06.107Z,491.1
2023-05-13T05:13:07.953Z,491.3
2023-05-13T05:14:09.826Z,491.1
2023-05-13T05:15:11.672Z,491
2023-05-13T05:16:13.510Z,490.9
2023-05-13T05:17:18.095Z,490.9
2023-05-13T05:18:20.120Z,490.7
2023-05-13T05:19:22.167Z,490.5
2023-05-13T05:20:24.388Z,490.6
2023-05-13T05:21:26.250Z,490.8
2023-05-13T05:22:28.095Z,490.6
2023-05-13T05:23:30.051Z,490.7
2023-05-13T05:24:32.030Z,491.2
2023-05-13T05:25:33.943Z,490.6
2023-05-13T05:26:35.804Z,490.5
2023-05-13T05:27:37.659Z,490.2
2023-05-13T05:28:39.402Z,489.8
2023-05-13T05:29:41.350Z,489.8
2023-05-13T05:30:43.197Z,489.8
2023-05-13T05:31:45.173Z,490
2023-05-13T05:32:47.232Z,489.7
2023-05-13T05:33:49.066Z,490.3
2023-05-13T05:34:50.717Z,490.6
2023-05-13T05:35:52.336Z,490.8
2023-05-13T05:36:53.945Z,490.7
2023-05-13T05:37:55.740Z,490.9
2023-05-13T05:38:57.594Z,490.9
2023-05-13T05:39:59.575Z,490.9
2023-05-13T05:41:01.396Z,490.6
2023-05-13T05:42:03.167Z,490.4
2023-05-13T05:43:05.001Z,490.3
2023-05-13T05:44:06.837Z,490.3
2023-05-13T05:45:08.794Z,490
2023-05-13T05:46:10.781Z,489.8
2023-05-13T05:47:12.694Z,489.8
2023-05-13T05:48:14.442Z,489.3
2023-05-13T05:49:16.296Z,489.5
2023-05-13T05:50:18.054Z,489.8
2023-05-13T05:51:19.901Z,489.8
2023-05-13T05:52:21.847Z,490.6
2023-05-13T05:53:23.722Z,490.5
2023-05-13T05:54:25.652Z,490.7
2023-05-13T05:55:27.517Z,490.5
2023-05-13T05:56:29.353Z,490.5
2023-05-13T05:57:31.282Z,490.3
2023-05-13T05:58:33.040Z,490.1
2023-05-13T05:59:34.691Z,490.3
2023-05-13T06:00:36.443Z,490.2
2023-05-13T06:01:38.261Z,490
2023-05-13T06:02:40.702Z,489.9
2023-05-13T06:03:42.910Z,490.1
2023-05-13T06:04:45.338Z,490.3
2023-05-13T06:05:47.229Z,490.1
2023-05-13T06:06:49.292Z,490
2023-05-13T06:07:51.331Z,489.5
2023-05-13T06:08:53.011Z,489.8
2023-05-13T06:09:54.827Z,489.5
2023-05-13T06:10:56.813Z,489.8
2023-05-13T06:11:58.731Z,489.9
2023-05-13T06:13:00.701Z,490.1
2023-05-13T06:14:02.542Z,490.2
2023-05-13T06:15:04.385Z,490.1
2023-05-13T06:16:06.360Z,489.5
2023-05-13T06:17:08.186Z,489.5
2023-05-13T06:18:10.287Z,489.6
2023-05-13T06:19:12.782Z,489.6
2023-05-13T06:20:14.693Z,489.7
2023-05-13T06:21:16.504Z,489.5
2023-05-13T06:22:18.362Z,489.6
2023-05-13T06:23:20.206Z,489.7
2023-05-13T06:24:21.966Z,489.4
2023-05-13T06:25:23.812Z,489.5
2023-05-13T06:26:25.776Z,489.5
2023-05-13T06:27:27.631Z,489.6
2023-05-13T06:28:29.464Z,489.6
2023-05-13T06:29:31.309Z,489.3
2023-05-13T06:30:33.155Z,489.2
2023-05-13T06:31:35.088Z,489
2023-05-13T06:32:53.909Z,488.7
2023-05-13T06:33:59.600Z,488.6
2023-05-13T06:35:01.261Z,488.4
2023-05-13T06:36:03.102Z,488.3
2023-05-13T06:37:04.951Z,488.6
2023-05-13T06:38:06.713Z,489
2023-05-13T06:39:08.487Z,488.7
2023-05-13T06:40:10.307Z,488.9
2023-05-13T06:41:12.056Z,488.4
2023-05-13T06:42:15.051Z,488.8
2023-05-13T06:43:17.066Z,488.4
2023-05-13T06:44:18.927Z,488.7
2023-05-13T06:45:20.775Z,488.5
2023-05-13T06:46:22.969Z,488.3
2023-05-13T06:47:25.125Z,488.6
2023-05-13T06:48:27.241Z,488.7
2023-05-13T06:49:32.044Z,488.7
2023-05-13T06:50:33.801Z,488.8
2023-05-13T06:51:35.579Z,489
2023-05-13T06:52:38.606Z,488.6
2023-05-13T06:53:41.396Z,489.1
2023-05-13T06:54:43.261Z,488.4
2023-05-13T06:55:44.956Z,488.7
2023-05-13T06:56:46.748Z,488.9
2023-05-13T06:57:48.572Z,489.1
2023-05-13T06:58:50.194Z,489.2
2023-05-13T06:59:51.799Z,489
2023-05-13T07:00:53.782Z,488.7
2023-05-13T07:01:55.695Z,488.8
2023-05-13T07:02:57.793Z,488.5
2023-05-13T07:03:59.824Z,488.8
2023-05-13T07:05:01.649Z,488.7
2023-05-13T07:06:03.359Z,488.6
2023-05-13T07:07:05.054Z,488.7
2023-05-13T07:08:06.973Z,488.7
2023-05-13T07:09:09.479Z,488.9
2023-05-13T07:10:11.420Z,488.5
2023-05-13T07:11:13.171Z,488.3
2023-05-13T07:12:15.017Z,488.6
2023-05-13T07:13:16.902Z,488.4
2023-05-13T07:14:18.732Z,488.7
2023-05-13T07:15:21.663Z,487.9
2023-05-13T07:16:23.642Z,488.3
2023-05-13T07:17:25.687Z,488.4
2023-05-13T07:18:28.289Z,487.9
2023-05-13T07:19:30.208Z,487.8
2023-05-13T07:20:31.977Z,487.5
2023-05-13T07:21:33.828Z,487.5
2023-05-13T07:22:35.658Z,487.3
2023-05-13T07:23:37.515Z,487.6
2023-05-13T07:24:39.469Z,487.1
2023-05-13T07:25:41.413Z,487
2023-05-13T07:26:43.160Z,487.3
2023-05-13T07:27:44.911Z,487
2023-05-13T07:28:46.634Z,486.9
2023-05-13T07:29:48.832Z,486.9
2023-05-13T07:30:50.929Z,486.9
2023-05-13T07:31:52.627Z,486.8
2023-05-13T07:32:54.788Z,486.9
2023-05-13T07:33:56.631Z,486.9
2023-05-13T07:34:58.380Z,486.4
2023-05-13T07:36:00.337Z,486.6
2023-05-13T07:37:03.099Z,486.2
2023-05-13T07:38:05.046Z,486.2
2023-05-13T07:39:07.701Z,486.6
2023-05-13T07:40:09.468Z,486.2
2023-05-13T07:41:11.331Z,486.8
2023-05-13T07:42:13.285Z,486.6
2023-05-13T07:43:15.129Z,487.2
2023-05-13T07:44:16.994Z,487.4
2023-05-13T07:45:18.718Z,487.2
2023-05-13T07:46:20.642Z,487.2
2023-05-13T07:47:22.854Z,486.5
2023-05-13T07:48:24.670Z,486.7
2023-05-13T07:49:26.238Z,486.6
2023-05-13T07:50:27.863Z,486.7
2023-05-13T07:51:29.719Z,486.5
2023-05-13T07:52:31.567Z,486.8
2023-05-13T07:53:33.320Z,486.5
2023-05-13T07:54:35.162Z,486.7
2023-05-13T07:55:36.919Z,486.4
2023-05-13T07:56:38.725Z,486.5
2023-05-13T07:57:40.520Z,486.6
2023-05-13T07:58:42.367Z,486.2
2023-05-13T07:59:45.565Z,486.5
2023-05-13T08:00:47.282Z,486.6
2023-05-13T08:01:48.854Z,486.5
2023-05-13T08:02:51.268Z,486.2
2023-05-13T08:03:53.973Z,486.3
2023-05-13T08:04:55.977Z,486.3
2023-05-13T08:05:57.672Z,486.4
2023-05-13T08:06:59.357Z,486.6
2023-05-13T08:08:01.062Z,486.7
2023-05-13T08:09:02.786Z,486.6
2023-05-13T08:10:04.756Z,486.4
2023-05-13T08:11:06.515Z,486.9
2023-05-13T08:12:08.275Z,486.7
2023-05-13T08:13:10.114Z,486.5
2023-05-13T08:14:11.887Z,486.6
2023-05-13T08:15:13.728Z,486.4
2023-05-13T08:16:15.787Z,486.5
2023-05-13T08:17:17.607Z,486.8
2023-05-13T08:18:19.326Z,487.2
2023-05-13T08:19:21.540Z,487
2023-05-13T08:20:23.615Z,487.3
2023-05-13T08:21:25.391Z,487.3
2023-05-13T08:22:27.269Z,487.6
2023-05-13T08:23:46.640Z,487.8
2023-05-13T08:24:48.490Z,487.7
2023-05-13T08:25:50.151Z,487.7
2023-05-13T08:26:51.859Z,487.6
2023-05-13T08:27:56.062Z,487.3
2023-05-13T08:28:57.640Z,487.3
2023-05-13T08:29:59.290Z,487.4
2023-05-13T08:31:01.147Z,487.8
2023-05-13T08:32:03.406Z,488.4
2023-05-13T08:33:05.351Z,488.2
2023-05-13T08:34:07.051Z,488.4
2023-05-13T08:35:08.668Z,488.6
2023-05-13T08:36:10.273Z,488.4
2023-05-13T08:37:12.119Z,488.7
2023-05-13T08:38:13.955Z,488.6
2023-05-13T08:39:15.819Z,488.2
2023-05-13T08:40:17.669Z,488.6
2023-05-13T08:41:22.502Z,488.7
2023-05-13T08:42:24.473Z,488.8
2023-05-13T08:43:26.293Z,489.1
2023-05-13T08:44:28.032Z,488.9
2023-05-13T08:45:29.897Z,489.2
2023-05-13T08:46:32.290Z,489.2
2023-05-13T08:47:37.730Z,489.3
2023-05-13T08:48:39.531Z,489.4
2023-05-13T08:49:41.292Z,489.5
2023-05-13T08:50:43.125Z,489.8
2023-05-13T08:51:44.844Z,489.6
2023-05-13T08:52:46.581Z,489.6
2023-05-13T08:53:48.377Z,489.6
2023-05-13T08:54:50.216Z,489.2
2023-05-13T08:55:52.182Z,489.4
2023-05-13T08:56:53.893Z,489.5
2023-05-13T08:57:55.488Z,489.6
2023-05-13T08:58:57.157Z,489.4
2023-05-13T08:59:58.858Z,489.4
2023-05-13T09:01:00.804Z,489.2
2023-05-13T09:02:02.493Z,489.7
2023-05-13T09:03:04.568Z,490
2023-05-13T09:04:06.365Z,490.5
2023-05-13T09:05:08.575Z,490.7
2023-05-13T09:06:10.367Z,490.7
2023-05-13T09:07:12.231Z,491.1
2023-05-13T09:08:14.055Z,491.4
2023-05-13T09:09:15.841Z,491.5
2023-05-13T09:10:17.684Z,491.3
2023-05-13T09:11:19.310Z,491.3
2023-05-13T09:12:20.938Z,491.5
2023-05-13T09:13:22.583Z,491.7
2023-05-13T09:14:24.461Z,491.6
2023-05-13T09:15:26.918Z,491.6
2023-05-13T09:16:29.375Z,491.6
2023-05-13T09:17:31.493Z,491.6
2023-05-13T09:18:33.979Z,492.1
2023-05-13T09:19:36.547Z,492
2023-05-13T09:20:38.244Z,492.2
2023-05-13T09:21:40.060Z,492.2
2023-05-13T09:22:41.923Z,492
2023-05-13T09:23:43.598Z,492.1
2023-05-13T09:24:45.303Z,492.3
2023-05-13T09:25:47.256Z,491.9
2023-05-13T09:26:49.019Z,492
2023-05-13T09:27:50.867Z,491.8
2023-05-13T09:28:52.527Z,491.8
2023-05-13T09:29:54.364Z,491.8
2023-05-13T09:30:56.659Z,492.1
2023-05-13T09:31:58.539Z,492
2023-05-13T09:33:00.757Z,491.8
2023-05-13T09:34:02.411Z,491.8
2023-05-13T09:35:03.995Z,491.6
2023-05-13T09:36:05.671Z,491.6
2023-05-13T09:37:07.621Z,491.8
2023-05-13T09:38:09.458Z,492
2023-05-13T09:39:11.315Z,492.1
2023-05-13T09:40:12.993Z,492.3
2023-05-13T09:41:14.904Z,492.4
2023-05-13T09:42:16.765Z,492.8
2023-05-13T09:43:18.513Z,492.3
2023-05-13T09:44:20.250Z,492.4
2023-05-13T09:45:23.176Z,492.8
2023-05-13T09:46:25.141Z,493.1
2023-05-13T09:47:27.082Z,493.2
2023-05-13T09:48:29.324Z,493.2
2023-05-13T09:49:31.351Z,493.3
2023-05-13T09:50:33.095Z,493.1
2023-05-13T09:51:34.826Z,493.8
2023-05-13T09:52:36.425Z,494
2023-05-13T09:53:38.003Z,494.5
2023-05-13T09:54:39.770Z,494.6
2023-05-13T09:55:41.619Z,494.4
2023-05-13T09:56:43.484Z,493.9
2023-05-13T09:57:45.324Z,493.7
2023-05-13T09:58:47.211Z,494
2023-05-13T09:59:48.899Z,494
2023-05-13T10:00:54.137Z,494.4
2023-05-13T10:01:56.103Z,494.5
2023-05-13T10:02:58.106Z,494.6
2023-05-13T10:04:00.473Z,494.2
2023-05-13T10:05:02.388Z,494.4
2023-05-13T10:06:04.448Z,494.2
2023-05-13T10:07:06.294Z,494.5
2023-05-13T10:08:08.243Z,494.1
2023-05-13T10:09:10.090Z,494.3
2023-05-13T10:10:11.775Z,494.2
2023-05-13T10:11:15.939Z,494.2
2023-05-13T10:12:17.797Z,494.3
2023-05-13T10:13:19.745Z,494.2
2023-05-13T10:14:21.612Z,494.5
2023-05-13T10:15:23.338Z,494.4
2023-05-13T10:16:25.461Z,494.4
2023-05-13T10:17:27.552Z,494.2
2023-05-13T10:18:30.041Z,494.5
2023-05-13T10:19:31.821Z,494.4
2023-05-13T10:20:33.456Z,494.3
2023-05-13T10:21:35.064Z,493.9
2023-05-13T10:22:36.672Z,493.7
2023-05-13T10:23:38.337Z,493.8
2023-05-13T10:24:39.958Z,494.2
2023-05-13T10:25:41.741Z,494
2023-05-13T10:26:43.589Z,493.9
2023-05-13T10:27:45.223Z,494.3
2023-05-13T10:28:47.012Z,494.5
2023-05-13T10:29:51.539Z,494.6
2023-05-13T10:30:53.954Z,494.5
2023-05-13T10:31:56.133Z,494.7
2023-05-13T10:32:58.175Z,494.8
2023-05-13T10:34:00.066Z,494.5
2023-05-13T10:35:02.009Z,494.9
2023-05-13T10:36:03.818Z,494.8
2023-05-13T10:37:05.557Z,495
2023-05-13T10:38:07.305Z,495.2
2023-05-13T10:39:09.166Z,495.3
2023-05-13T10:40:11.006Z,494.8
2023-05-13T10:41:12.777Z,494.6
2023-05-13T10:42:14.604Z,494.7
2023-05-13T10:43:16.359Z,494.4
2023-05-13T10:44:18.242Z,494.4
2023-05-13T10:45:20.049Z,494.5
2023-05-13T10:46:22.068Z,494.5
2023-05-13T10:47:24.419Z,494
2023-05-13T10:48:26.763Z,494.2
2023-05-13T10:49:28.696Z,494
2023-05-13T10:50:30.563Z,493.6
2023-05-13T10:51:32.391Z,493.6
2023-05-13T10:52:34.105Z,494
2023-05-13T10:53:35.767Z,493.7
2023-05-13T10:54:37.626Z,493.6
2023-05-13T10:55:39.381Z,493.3
2023-05-13T10:56:41.224Z,494
2023-05-13T10:57:43.080Z,494.1
2023-05-13T10:58:46.376Z,494.3
2023-05-13T10:59:48.506Z,494
2023-05-13T11:00:50.160Z,493.7
2023-05-13T11:01:52.143Z,493.6
2023-05-13T11:02:54.318Z,493.6
2023-05-13T11:03:56.885Z,493.3
2023-05-13T11:04:58.892Z,493.4
2023-05-13T11:06:00.770Z,493.1
2023-05-13T11:07:02.522Z,492.8
2023-05-13T11:08:04.447Z,493.1
2023-05-13T11:09:06.129Z,493.5
2023-05-13T11:10:07.746Z,493.6
2023-05-13T11:11:09.307Z,493.4
2023-05-13T11:12:11.130Z,493.5
2023-05-13T11:13:12.942Z,493.5
2023-05-13T11:14:14.582Z,493.6
2023-05-13T11:15:16.200Z,493.6
2023-05-13T11:16:18.206Z,493.4
2023-05-13T11:17:19.910Z,493.7
2023-05-13T11:18:21.516Z,493.8
2023-05-13T11:19:23.298Z,494.1
2023-05-13T11:20:24.947Z,494.1
2023-05-13T11:21:26.642Z,494.3
2023-05-13T11:22:28.423Z,494.3
2023-05-13T11:23:30.078Z,494.3
2023-05-13T11:24:31.909Z,494.8
2023-05-13T11:25:33.545Z,494.5
2023-05-13T11:26:35.130Z,495.1
2023-05-13T11:27:36.931Z,495.1
2023-05-13T11:28:38.602Z,495
2023-05-13T11:29:40.239Z,495.4
2023-05-13T11:30:42.096Z,495.8
2023-05-13T11:31:44.615Z,496
2023-05-13T11:32:46.832Z,496.2
2023-05-13T11:33:48.497Z,496.2
2023-05-13T11:34:50.201Z,496.6
2023-05-13T11:35:51.837Z,496.7
2023-05-13T11:36:53.606Z,496.7
2023-05-13T11:38:00.757Z,496.8
2023-05-13T11:39:02.608Z,496.8
2023-05-13T11:40:04.570Z,496.9
2023-05-13T11:41:06.317Z,496.7
2023-05-13T11:42:08.187Z,497.2
2023-05-13T11:43:10.000Z,497.2
2023-05-13T11:44:11.850Z,497.3
2023-05-13T11:45:13.770Z,497.6
2023-05-13T11:46:15.713Z,497.6
2023-05-13T11:47:17.623Z,497.5
2023-05-13T11:48:19.397Z,497.5
2023-05-13T11:49:21.416Z,497.4
2023-05-13T11:50:23.293Z,497.7
2023-05-13T11:51:25.117Z,497.5
2023-05-13T11:52:26.987Z,497.6
2023-05-13T11:53:29.002Z,497.5
2023-05-13T11:54:30.871Z,497.6
2023-05-13T11:55:32.735Z,497.7
2023-05-13T11:56:34.589Z,498.3
2023-05-13T11:57:36.413Z,498.3
2023-05-13T11:58:38.271Z,498.3
2023-05-13T11:59:49.030Z,498.1
2023-05-13T12:00:50.873Z,498.7
2023-05-13T12:01:53.126Z,498.5
2023-05-13T12:02:55.295Z,499.2
2023-05-13T12:03:57.243Z,499.1
2023-05-13T12:04:59.229Z,499.2
2023-05-13T12:06:01.167Z,499.4
2023-05-13T12:07:02.999Z,498.8
2023-05-13T12:08:08.163Z,498.8
2023-05-13T12:09:10.519Z,498.8
2023-05-13T12:10:12.792Z,499.4
2023-05-13T12:11:14.428Z,498.9
2023-05-13T12:12:16.193Z,499.3
2023-05-13T12:13:17.841Z,499.7
2023-05-13T12:14:19.447Z,499.2
2023-05-13T12:15:23.000Z,499.6
2023-05-13T12:16:25.230Z,500
2023-05-13T12:17:27.263Z,499.7
2023-05-13T12:18:29.155Z,499.8
2023-05-13T12:19:30.859Z,499.7
2023-05-13T12:20:32.508Z,499.2
2023-05-13T12:21:34.241Z,499.3
2023-05-13T12:22:35.867Z,499.7
2023-05-13T12:23:37.860Z,499.7
2023-05-13T12:24:39.593Z,499.3
2023-05-13T12:25:41.631Z,499.1
2023-05-13T12:26:43.378Z,499.1
2023-05-13T12:27:45.136Z,499.3
2023-05-13T12:28:46.989Z,499.7
2023-05-13T12:29:48.819Z,499.7
2023-05-13T12:30:50.782Z,499.9
2023-05-13T12:31:53.089Z,500.3
2023-05-13T12:32:55.246Z,499.7
2023-05-13T12:33:57.099Z,500
2023-05-13T12:34:58.994Z,500.1
2023-05-13T12:36:00.851Z,500.5
2023-05-13T12:37:02.921Z,500.7
2023-05-13T12:38:04.871Z,500.6
2023-05-13T12:39:06.826Z,500.9
2023-05-13T12:40:08.648Z,500.6
2023-05-13T12:41:10.606Z,500.7
2023-05-13T12:42:12.452Z,500.4
2023-05-13T12:43:14.301Z,500.4
2023-05-13T12:44:16.181Z,500.7
2023-05-13T12:45:18.002Z,500.9
2023-05-13T12:46:20.105Z,501.1
2023-05-13T12:47:22.025Z,500.9
2023-05-13T12:48:23.861Z,501
2023-05-13T12:49:25.829Z,501.1
2023-05-13T12:50:27.573Z,501.1
2023-05-13T12:51:29.398Z,501.5
2023-05-13T12:52:31.280Z,502
2023-05-13T12:53:32.933Z,501.6
2023-05-13T12:54:34.675Z,502.1
2023-05-13T12:55:36.515Z,501.9
2023-05-13T12:56:38.468Z,501.1
2023-05-13T12:57:40.308Z,501.1
2023-05-13T12:58:42.164Z,501.4
2023-05-13T12:59:44.006Z,501.6
2023-05-13T13:00:46.221Z,501.9
2023-05-13T13:01:48.371Z,501.8
2023-05-13T13:02:50.673Z,501.9
2023-05-13T13:03:52.938Z,502.1
2023-05-13T13:04:57.341Z,502.2
2023-05-13T13:05:59.213Z,502.5
2023-05-13T13:07:01.159Z,502.3
2023-05-13T13:08:03.019Z,502.3
2023-05-13T13:09:04.680Z,501.9
2023-05-13T13:10:06.852Z,502.2
2023-05-13T13:11:08.779Z,502.1
2023-05-13T13:12:10.726Z,502.2
2023-05-13T13:13:12.553Z,501.6
2023-05-13T13:14:14.322Z,502.1
2023-05-13T13:15:16.161Z,502.4
2023-05-13T13:16:18.265Z,502.5
2023-05-13T13:17:20.273Z,502.8
2023-05-13T13:18:22.131Z,502.9
2023-05-13T13:19:24.359Z,503
2023-05-13T13:20:26.137Z,502.9
2023-05-13T13:21:30.984Z,503.4
2023-05-13T13:22:32.820Z,503.4